sensor_id;sensor_type;location;lat;lon;timestamp;pressure;altitude;pressure_sealevel;temperature;humidity
60355;BME280;46198;51.464;-0.066;2023-04-01T00:01:33;99714.16;;;9.90;100.00
60355;BME280;46198;51.464;-0.066;2023-04-01T00:04:01;99715.22;;;9.89;100.00
60355;BME280;46198;51.464;-0.066;2023-04-01T00:06:30;99720.88;;;9.87;100.00
60355;BME280;46198;51.464;-0.066;2023-04-01T00:08:58;99718.56;;;9.79;100.00
60355;BME280;46198;51.464;-0.066;2023-04-01T00:11:26;99722.19;;;9.85;100.00
60355;BME280;46198;51.464;-0.066;2023-04-01T00:14:19;99732.69;;;9.81;100.00
60355;BME280;46198;51.464;-0.066;2023-04-01T00:16:47;99734.34;;;9.82;100.00
60355;BME280;46198;51.464;-0.066;2023-04-01T00:19:15;99732.47;;;9.83;100.00
60355;BME280;46198;51.464;-0.066;2023-04-01T00:21:45;99742.25;;;9.84;100.00
60355;BME280;46198;51.464;-0.066;2023-04-01T00:24:13;99742.72;;;9.81;100.00
60355;BME280;46198;51.464;-0.066;2023-04-01T00:26:41;99747.66;;;9.84;100.00
60355;BME280;46198;51.464;-0.066;2023-04-01T00:29:11;99746.25;;;9.81;100.00
60355;BME280;46198;51.464;-0.066;2023-04-01T00:31:39;99744.94;;;9.84;100.00
60355;BME280;46198;51.464;-0.066;2023-04-01T00:34:07;99755.22;;;9.82;100.00
60355;BME280;46198;51.464;-0.066;2023-04-01T00:36:35;99750.28;;;9.79;100.00
60355;BME280;46198;51.464;-0.066;2023-04-01T00:39:05;99758.50;;;9.84;100.00
60355;BME280;46198;51.464;-0.066;2023-04-01T00:41:33;99759.00;;;9.81;100.00
60355;BME280;46198;51.464;-0.066;2023-04-01T00:44:16;99751.91;;;9.80;100.00
60355;BME280;46198;51.464;-0.066;2023-04-01T00:46:45;99754.63;;;9.80;100.00
60355;BME280;46198;51.464;-0.066;2023-04-01T00:49:14;99755.84;;;9.72;100.00
60355;BME280;46198;51.464;-0.066;2023-04-01T00:51:44;99767.03;;;9.75;100.00
60355;BME280;46198;51.464;-0.066;2023-04-01T00:54:16;99772.19;;;9.77;100.00
60355;BME280;46198;51.464;-0.066;2023-04-01T00:56:48;99770.44;;;9.71;100.00
60355;BME280;46198;51.464;-0.066;2023-04-01T00:59:24;99784.25;;;9.69;100.00
60355;BME280;46198;51.464;-0.066;2023-04-01T01:01:53;99778.84;;;9.69;100.00
60355;BME280;46198;51.464;-0.066;2023-04-01T01:04:23;99784.94;;;9.76;100.00
60355;BME280;46198;51.464;-0.066;2023-04-01T01:07:00;99788.00;;;9.68;100.00
60355;BME280;46198;51.464;-0.066;2023-04-01T01:09:41;99793.44;;;9.68;100.00
60355;BME280;46198;51.464;-0.066;2023-04-01T01:12:13;99794.25;;;9.69;100.00
60355;BME280;46198;51.464;-0.066;2023-04-01T01:15:20;99792.28;;;9.64;100.00
60355;BME280;46198;51.464;-0.066;2023-04-01T01:17:56;99794.72;;;9.66;100.00
60355;BME280;46198;51.464;-0.066;2023-04-01T01:20:48;99817.63;;;9.58;100.00
60355;BME280;46198;51.464;-0.066;2023-04-01T01:23:42;99821.03;;;9.53;100.00
60355;BME280;46198;51.464;-0.066;2023-04-01T01:29:25;99816.81;;;9.46;100.00
60355;BME280;46198;51.464;-0.066;2023-04-01T01:31:59;99820.22;;;9.41;100.00
60355;BME280;46198;51.464;-0.066;2023-04-01T01:34:36;99822.00;;;9.36;100.00
60355;BME280;46198;51.464;-0.066;2023-04-01T01:37:12;99825.53;;;9.36;100.00
60355;BME280;46198;51.464;-0.066;2023-04-01T01:39:43;99830.13;;;9.36;100.00
60355;BME280;46198;51.464;-0.066;2023-04-01T01:45:57;99847.22;;;9.24;100.00
60355;BME280;46198;51.464;-0.066;2023-04-01T01:48:28;99842.25;;;9.21;100.00
60355;BME280;46198;51.464;-0.066;2023-04-01T01:50:57;99839.44;;;9.16;100.00
60355;BME280;46198;51.464;-0.066;2023-04-01T01:53:27;99843.22;;;9.15;100.00
60355;BME280;46198;51.464;-0.066;2023-04-01T01:56:22;99858.25;;;9.11;100.00
60355;BME280;46198;51.464;-0.066;2023-04-01T01:58:54;99857.78;;;9.14;100.00
60355;BME280;46198;51.464;-0.066;2023-04-01T02:01:30;99857.66;;;9.09;100.00
60355;BME280;46198;51.464;-0.066;2023-04-01T02:04:07;99870.50;;;9.14;100.00
60355;BME280;46198;51.464;-0.066;2023-04-01T02:06:41;99876.19;;;9.12;100.00
60355;BME280;46198;51.464;-0.066;2023-04-01T02:09:12;99871.47;;;9.07;100.00
60355;BME280;46198;51.464;-0.066;2023-04-01T02:11:44;99885.81;;;9.08;100.00
60355;BME280;46198;51.464;-0.066;2023-04-01T02:14:15;99879.22;;;9.04;100.00
60355;BME280;46198;51.464;-0.066;2023-04-01T02:16:49;99880.88;;;9.05;100.00
60355;BME280;46198;51.464;-0.066;2023-04-01T02:19:18;99887.09;;;9.05;100.00
60355;BME280;46198;51.464;-0.066;2023-04-01T02:21:53;99888.19;;;9.04;100.00
60355;BME280;46198;51.464;-0.066;2023-04-01T02:24:25;99884.53;;;8.99;100.00
60355;BME280;46198;51.464;-0.066;2023-04-01T02:26:54;99891.56;;;9.00;100.00
60355;BME280;46198;51.464;-0.066;2023-04-01T02:29:23;99903.00;;;9.02;100.00
60355;BME280;46198;51.464;-0.066;2023-04-01T02:31:54;99898.75;;;9.06;100.00
60355;BME280;46198;51.464;-0.066;2023-04-01T02:34:23;99894.28;;;9.00;100.00
60355;BME280;46198;51.464;-0.066;2023-04-01T02:36:52;99902.53;;;9.05;100.00
60355;BME280;46198;51.464;-0.066;2023-04-01T02:39:23;99909.91;;;8.98;100.00
60355;BME280;46198;51.464;-0.066;2023-04-01T02:41:52;99898.41;;;9.02;100.00
60355;BME280;46198;51.464;-0.066;2023-04-01T02:44:20;99908.28;;;8.97;100.00
60355;BME280;46198;51.464;-0.066;2023-04-01T02:46:48;99909.69;;;8.99;100.00
60355;BME280;46198;51.464;-0.066;2023-04-01T02:49:17;99903.22;;;9.00;100.00
60355;BME280;46198;51.464;-0.066;2023-04-01T02:51:45;99909.34;;;8.96;100.00
60355;BME280;46198;51.464;-0.066;2023-04-01T02:54:13;99920.19;;;8.96;100.00
60355;BME280;46198;51.464;-0.066;2023-04-01T02:56:43;99915.34;;;8.98;100.00
60355;BME280;46198;51.464;-0.066;2023-04-01T03:02:31;99924.53;;;8.97;100.00
60355;BME280;46198;51.464;-0.066;2023-04-01T03:04:59;99924.06;;;9.00;100.00
60355;BME280;46198;51.464;-0.066;2023-04-01T03:07:27;99928.06;;;8.97;100.00
60355;BME280;46198;51.464;-0.066;2023-04-01T03:09:55;99936.28;;;8.91;100.00
60355;BME280;46198;51.464;-0.066;2023-04-01T03:12:24;99938.06;;;8.97;100.00
60355;BME280;46198;51.464;-0.066;2023-04-01T03:14:52;99938.53;;;8.94;100.00
60355;BME280;46198;51.464;-0.066;2023-04-01T03:17:20;99944.97;;;8.93;100.00
60355;BME280;46198;51.464;-0.066;2023-04-01T03:19:48;99944.88;;;8.87;100.00
60355;BME280;46198;51.464;-0.066;2023-04-01T03:22:16;99953.44;;;8.84;100.00
60355;BME280;46198;51.464;-0.066;2023-04-01T03:24:48;99953.81;;;8.88;100.00
60355;BME280;46198;51.464;-0.066;2023-04-01T03:27:16;99948.16;;;8.90;100.00
60355;BME280;46198;51.464;-0.066;2023-04-01T03:29:45;99959.81;;;8.90;100.00
60355;BME280;46198;51.464;-0.066;2023-04-01T03:32:13;99950.03;;;8.89;100.00
60355;BME280;46198;51.464;-0.066;2023-04-01T03:34:42;99947.44;;;8.82;100.00
60355;BME280;46198;51.464;-0.066;2023-04-01T03:37:11;99957.22;;;8.83;100.00
60355;BME280;46198;51.464;-0.066;2023-04-01T03:39:39;99957.41;;;8.82;100.00
60355;BME280;46198;51.464;-0.066;2023-04-01T03:42:10;99957.53;;;8.75;100.00
60355;BME280;46198;51.464;-0.066;2023-04-01T03:44:38;99962.47;;;8.78;100.00
60355;BME280;46198;51.464;-0.066;2023-04-01T03:47:08;99964.38;;;8.78;100.00
60355;BME280;46198;51.464;-0.066;2023-04-01T03:49:36;99968.72;;;8.79;100.00
60355;BME280;46198;51.464;-0.066;2023-04-01T03:56:03;99985.66;;;8.74;100.00
60355;BME280;46198;51.464;-0.066;2023-04-01T03:58:34;99980.38;;;8.79;100.00
60355;BME280;46198;51.464;-0.066;2023-04-01T04:01:13;99987.91;;;8.77;100.00
60355;BME280;46198;51.464;-0.066;2023-04-01T04:03:42;99982.97;;;8.74;100.00
60355;BME280;46198;51.464;-0.066;2023-04-01T04:06:13;99990.00;;;8.75;100.00
60355;BME280;46198;51.464;-0.066;2023-04-01T04:08:41;99991.06;;;8.74;100.00
60355;BME280;46198;51.464;-0.066;2023-04-01T04:11:10;99996.50;;;8.74;100.00
60355;BME280;46198;51.464;-0.066;2023-04-01T04:13:41;100007.75;;;8.71;100.00
60355;BME280;46198;51.464;-0.066;2023-04-01T04:16:34;100007.16;;;8.69;100.00
60355;BME280;46198;51.464;-0.066;2023-04-01T04:19:05;100010.09;;;8.68;100.00
60355;BME280;46198;51.464;-0.066;2023-04-01T04:21:33;100010.09;;;8.68;100.00
60355;BME280;46198;51.464;-0.066;2023-04-01T04:24:01;100018.72;;;8.76;100.00
60355;BME280;46198;51.464;-0.066;2023-04-01T04:26:50;100024.91;;;8.65;100.00
60355;BME280;46198;51.464;-0.066;2023-04-01T04:29:18;100027.00;;;8.63;100.00
60355;BME280;46198;51.464;-0.066;2023-04-01T04:31:46;100031.84;;;8.61;100.00
60355;BME280;46198;51.464;-0.066;2023-04-01T04:34:15;100025.34;;;8.62;100.00
60355;BME280;46198;51.464;-0.066;2023-04-01T04:36:45;100023.94;;;8.59;100.00
60355;BME280;46198;51.464;-0.066;2023-04-01T04:39:13;100024.53;;;8.61;100.00
60355;BME280;46198;51.464;-0.066;2023-04-01T04:41:42;100038.69;;;8.63;100.00
60355;BME280;46198;51.464;-0.066;2023-04-01T04:44:10;100037.81;;;8.63;100.00
60355;BME280;46198;51.464;-0.066;2023-04-01T04:46:38;100030.31;;;8.65;100.00
60355;BME280;46198;51.464;-0.066;2023-04-01T04:49:13;100036.78;;;8.64;100.00
60355;BME280;46198;51.464;-0.066;2023-04-01T04:51:42;100035.97;;;8.63;100.00
60355;BME280;46198;51.464;-0.066;2023-04-01T04:54:12;100042.66;;;8.61;100.00
60355;BME280;46198;51.464;-0.066;2023-04-01T04:56:55;100047.00;;;8.62;100.00
60355;BME280;46198;51.464;-0.066;2023-04-01T04:59:25;100049.25;;;8.65;100.00
60355;BME280;46198;51.464;-0.066;2023-04-01T05:02:16;100051.13;;;8.64;100.00
60355;BME280;46198;51.464;-0.066;2023-04-01T05:04:44;100049.34;;;8.58;100.00
60355;BME280;46198;51.464;-0.066;2023-04-01T05:07:13;100059.03;;;8.66;100.00
60355;BME280;46198;51.464;-0.066;2023-04-01T05:09:42;100063.84;;;8.64;100.00
60355;BME280;46198;51.464;-0.066;2023-04-01T05:12:12;100065.03;;;8.68;100.00
60355;BME280;46198;51.464;-0.066;2023-04-01T05:15:00;100070.91;;;8.65;100.00
60355;BME280;46198;51.464;-0.066;2023-04-01T05:17:29;100068.19;;;8.65;100.00
60355;BME280;46198;51.464;-0.066;2023-04-01T05:19:57;100078.19;;;8.64;100.00
60355;BME280;46198;51.464;-0.066;2023-04-01T05:22:27;100080.91;;;8.64;100.00
60355;BME280;46198;51.464;-0.066;2023-04-01T05:24:55;100072.78;;;8.64;100.00
60355;BME280;46198;51.464;-0.066;2023-04-01T05:27:24;100074.69;;;8.64;100.00
60355;BME280;46198;51.464;-0.066;2023-04-01T05:29:52;100085.97;;;8.61;100.00
60355;BME280;46198;51.464;-0.066;2023-04-01T05:32:40;100090.75;;;8.59;100.00
60355;BME280;46198;51.464;-0.066;2023-04-01T05:35:08;100094.38;;;8.53;100.00
60355;BME280;46198;51.464;-0.066;2023-04-01T05:37:38;100095.41;;;8.52;100.00
60355;BME280;46198;51.464;-0.066;2023-04-01T05:40:07;100090.59;;;8.54;100.00
60355;BME280;46198;51.464;-0.066;2023-04-01T05:42:35;100096.91;;;8.48;100.00
60355;BME280;46198;51.464;-0.066;2023-04-01T05:45:06;100096.47;;;8.51;100.00
60355;BME280;46198;51.464;-0.066;2023-04-01T05:47:57;100102.94;;;8.50;100.00
60355;BME280;46198;51.464;-0.066;2023-04-01T05:50:30;100106.06;;;8.47;100.00
60355;BME280;46198;51.464;-0.066;2023-04-01T05:52:59;100109.84;;;8.46;100.00
60355;BME280;46198;51.464;-0.066;2023-04-01T05:55:27;100114.41;;;8.45;100.00
60355;BME280;46198;51.464;-0.066;2023-04-01T05:57:55;100111.94;;;8.43;100.00
60355;BME280;46198;51.464;-0.066;2023-04-01T06:00:23;100117.28;;;8.50;100.00
60355;BME280;46198;51.464;-0.066;2023-04-01T06:02:51;100120.19;;;8.49;100.00
60355;BME280;46198;51.464;-0.066;2023-04-01T06:05:21;100124.44;;;8.45;100.00
60355;BME280;46198;51.464;-0.066;2023-04-01T06:07:51;100123.16;;;8.47;100.00
60355;BME280;46198;51.464;-0.066;2023-04-01T06:10:36;100129.59;;;8.46;100.00
60355;BME280;46198;51.464;-0.066;2023-04-01T06:13:09;100129.84;;;8.45;100.00
60355;BME280;46198;51.464;-0.066;2023-04-01T06:16:11;100138.47;;;8.53;100.00
60355;BME280;46198;51.464;-0.066;2023-04-01T06:19:10;100143.13;;;8.46;100.00
60355;BME280;46198;51.464;-0.066;2023-04-01T06:22:27;100153.13;;;8.46;100.00
60355;BME280;46198;51.464;-0.066;2023-04-01T06:25:10;100150.50;;;8.39;100.00
60355;BME280;46198;51.464;-0.066;2023-04-01T06:27:58;100145.66;;;8.41;100.00
60355;BME280;46198;51.464;-0.066;2023-04-01T06:30:38;100155.66;;;8.40;100.00
60355;BME280;46198;51.464;-0.066;2023-04-01T06:33:28;100154.63;;;8.41;100.00
60355;BME280;46198;51.464;-0.066;2023-04-01T06:36:10;100164.41;;;8.42;100.00
60355;BME280;46198;51.464;-0.066;2023-04-01T06:39:01;100161.91;;;8.41;100.00
60355;BME280;46198;51.464;-0.066;2023-04-01T06:44:49;100169.81;;;8.42;100.00
60355;BME280;46198;51.464;-0.066;2023-04-01T06:47:51;100170.63;;;8.43;100.00
60355;BME280;46198;51.464;-0.066;2023-04-01T06:50:54;100170.66;;;8.36;100.00
60355;BME280;46198;51.464;-0.066;2023-04-01T06:53:52;100180.00;;;8.40;100.00
60355;BME280;46198;51.464;-0.066;2023-04-01T06:56:44;100188.13;;;8.40;100.00
60355;BME280;46198;51.464;-0.066;2023-04-01T06:59:25;100179.59;;;8.37;100.00
60355;BME280;46198;51.464;-0.066;2023-04-01T07:01:57;100189.38;;;8.38;100.00
60355;BME280;46198;51.464;-0.066;2023-04-01T07:04:30;100186.91;;;8.36;100.00
60355;BME280;46198;51.464;-0.066;2023-04-01T07:07:00;100191.44;;;8.42;100.00
60355;BME280;46198;51.464;-0.066;2023-04-01T07:09:36;100199.19;;;8.32;100.00
60355;BME280;46198;51.464;-0.066;2023-04-01T07:12:43;100211.00;;;8.45;100.00
60355;BME280;46198;51.464;-0.066;2023-04-01T07:15:36;100216.41;;;8.45;100.00
60355;BME280;46198;51.464;-0.066;2023-04-01T07:18:11;100216.00;;;8.41;100.00
60355;BME280;46198;51.464;-0.066;2023-04-01T07:20:43;100218.94;;;8.39;100.00
60355;BME280;46198;51.464;-0.066;2023-04-01T07:23:16;100218.06;;;8.46;100.00
60355;BME280;46198;51.464;-0.066;2023-04-01T07:26:20;100220.31;;;8.49;100.00
60355;BME280;46198;51.464;-0.066;2023-04-01T07:29:10;100221.81;;;8.45;100.00
60355;BME280;46198;51.464;-0.066;2023-04-01T07:32:02;100225.34;;;8.45;100.00
60355;BME280;46198;51.464;-0.066;2023-04-01T07:34:40;100233.03;;;8.48;100.00
60355;BME280;46198;51.464;-0.066;2023-04-01T07:37:18;100239.41;;;8.54;100.00
60355;BME280;46198;51.464;-0.066;2023-04-01T07:39:54;100246.72;;;8.53;100.00
60355;BME280;46198;51.464;-0.066;2023-04-01T07:42:39;100244.19;;;8.58;100.00
60355;BME280;46198;51.464;-0.066;2023-04-01T07:45:15;100253.41;;;8.51;100.00
60355;BME280;46198;51.464;-0.066;2023-04-01T07:47:56;100249.63;;;8.52;100.00
60355;BME280;46198;51.464;-0.066;2023-04-01T07:50:32;100261.97;;;8.48;100.00
60355;BME280;46198;51.464;-0.066;2023-04-01T07:53:09;100266.09;;;8.50;100.00
60355;BME280;46198;51.464;-0.066;2023-04-01T07:55:46;100274.66;;;8.47;100.00
60355;BME280;46198;51.464;-0.066;2023-04-01T07:58:20;100276.47;;;8.53;100.00
60355;BME280;46198;51.464;-0.066;2023-04-01T08:00:56;100280.00;;;8.54;100.00
60355;BME280;46198;51.464;-0.066;2023-04-01T08:03:41;100283.34;;;8.56;100.00
60355;BME280;46198;51.464;-0.066;2023-04-01T08:06:22;100274.56;;;8.60;100.00
60355;BME280;46198;51.464;-0.066;2023-04-01T08:08:59;100285.78;;;8.64;100.00
60355;BME280;46198;51.464;-0.066;2023-04-01T08:15:45;100285.78;;;8.64;100.00
60355;BME280;46198;51.464;-0.066;2023-04-01T08:18:45;100292.22;;;8.63;100.00
60355;BME280;46198;51.464;-0.066;2023-04-01T08:21:20;100304.91;;;8.62;100.00
60355;BME280;46198;51.464;-0.066;2023-04-01T08:23:51;100305.16;;;8.61;100.00
60355;BME280;46198;51.464;-0.066;2023-04-01T08:26:27;100306.34;;;8.65;100.00
60355;BME280;46198;51.464;-0.066;2023-04-01T08:29:02;100313.28;;;8.61;100.00
60355;BME280;46198;51.464;-0.066;2023-04-01T08:31:35;100310.78;;;8.59;100.00
60355;BME280;46198;51.464;-0.066;2023-04-01T08:34:10;100305.75;;;8.63;100.00
60355;BME280;46198;51.464;-0.066;2023-04-01T08:36:44;100308.19;;;8.71;100.00
60355;BME280;46198;51.464;-0.066;2023-04-01T08:39:18;100324.13;;;8.79;100.00
60355;BME280;46198;51.464;-0.066;2023-04-01T08:42:07;100323.50;;;8.84;100.00
60355;BME280;46198;51.464;-0.066;2023-04-01T08:45:11;100326.44;;;8.82;100.00
60355;BME280;46198;51.464;-0.066;2023-04-01T08:48:04;100328.47;;;8.87;100.00
60355;BME280;46198;51.464;-0.066;2023-04-01T08:54:04;100335.59;;;8.81;100.00
60355;BME280;46198;51.464;-0.066;2023-04-01T08:56:41;100347.03;;;8.83;100.00
60355;BME280;46198;51.464;-0.066;2023-04-01T08:59:30;100347.84;;;8.84;100.00
60355;BME280;46198;51.464;-0.066;2023-04-01T09:02:39;100347.56;;;8.92;100.00
60355;BME280;46198;51.464;-0.066;2023-04-01T09:05:45;100356.69;;;8.98;100.00
60355;BME280;46198;51.464;-0.066;2023-04-01T09:08:34;100358.97;;;9.01;100.00
60355;BME280;46198;51.464;-0.066;2023-04-01T09:11:28;100359.41;;;8.98;100.00
60355;BME280;46198;51.464;-0.066;2023-04-01T09:14:38;100365.59;;;9.05;100.00
60355;BME280;46198;51.464;-0.066;2023-04-01T09:17:34;100367.50;;;9.04;100.00
60355;BME280;46198;51.464;-0.066;2023-04-01T09:20:18;100369.97;;;9.06;100.00
60355;BME280;46198;51.464;-0.066;2023-04-01T09:23:05;100365.97;;;9.08;100.00
60355;BME280;46198;51.464;-0.066;2023-04-01T09:25:56;100377.06;;;9.07;100.00
60355;BME280;46198;51.464;-0.066;2023-04-01T09:28:38;100378.41;;;9.16;100.00
60355;BME280;46198;51.464;-0.066;2023-04-01T09:31:21;100383.00;;;9.16;100.00
60355;BME280;46198;51.464;-0.066;2023-04-01T09:34:51;100376.09;;;9.20;100.00
60355;BME280;46198;51.464;-0.066;2023-04-01T09:37:33;100385.28;;;9.19;100.00
60355;BME280;46198;51.464;-0.066;2023-04-01T09:40:16;100386.09;;;9.19;100.00
60355;BME280;46198;51.464;-0.066;2023-04-01T09:43:06;100391.31;;;9.21;100.00
60355;BME280;46198;51.464;-0.066;2023-04-01T09:45:57;100396.50;;;9.22;100.00
60355;BME280;46198;51.464;-0.066;2023-04-01T09:48:40;100405.88;;;9.20;100.00
60355;BME280;46198;51.464;-0.066;2023-04-01T09:51:22;100402.69;;;9.29;100.00
60355;BME280;46198;51.464;-0.066;2023-04-01T09:54:07;100405.72;;;9.15;100.00
60355;BME280;46198;51.464;-0.066;2023-04-01T09:56:58;100414.00;;;9.20;100.00
60355;BME280;46198;51.464;-0.066;2023-04-01T09:59:55;100416.06;;;9.24;100.00
60355;BME280;46198;51.464;-0.066;2023-04-01T10:03:12;100412.00;;;9.15;100.00
60355;BME280;46198;51.464;-0.066;2023-04-01T10:06:11;100429.44;;;9.19;100.00
60355;BME280;46198;51.464;-0.066;2023-04-01T10:09:18;100426.91;;;9.24;100.00
60355;BME280;46198;51.464;-0.066;2023-04-01T10:15:27;100430.78;;;9.35;100.00
60355;BME280;46198;51.464;-0.066;2023-04-01T10:24:30;100439.34;;;9.32;100.00
60355;BME280;46198;51.464;-0.066;2023-04-01T10:27:18;100445.88;;;9.24;100.00
60355;BME280;46198;51.464;-0.066;2023-04-01T10:30:30;100459.03;;;9.21;100.00
60355;BME280;46198;51.464;-0.066;2023-04-01T10:33:34;100444.97;;;9.30;100.00
60355;BME280;46198;51.464;-0.066;2023-04-01T10:39:38;100460.91;;;9.45;100.00
60355;BME280;46198;51.464;-0.066;2023-04-01T10:43:14;100464.91;;;9.43;100.00
60355;BME280;46198;51.464;-0.066;2023-04-01T10:46:33;100481.81;;;9.38;100.00
60355;BME280;46198;51.464;-0.066;2023-04-01T10:49:37;100491.38;;;9.41;100.00
60355;BME280;46198;51.464;-0.066;2023-04-01T10:52:28;100495.59;;;9.37;100.00
60355;BME280;46198;51.464;-0.066;2023-04-01T10:55:35;100492.88;;;9.37;100.00
60355;BME280;46198;51.464;-0.066;2023-04-01T11:15:19;100511.31;;;9.53;100.00
60355;BME280;46198;51.464;-0.066;2023-04-01T11:21:43;100531.03;;;9.35;100.00
60355;BME280;46198;51.464;-0.066;2023-04-01T11:24:29;100538.78;;;9.31;100.00
60355;BME280;46198;51.464;-0.066;2023-04-01T11:27:37;100538.16;;;9.29;100.00
60355;BME280;46198;51.464;-0.066;2023-04-01T11:30:24;100535.25;;;9.31;100.00
60355;BME280;46198;51.464;-0.066;2023-04-01T11:33:01;100538.59;;;9.26;100.00
60355;BME280;46198;51.464;-0.066;2023-04-01T11:35:50;100537.88;;;9.38;100.00
60355;BME280;46198;51.464;-0.066;2023-04-01T11:38:34;100542.34;;;9.57;100.00
60355;BME280;46198;51.464;-0.066;2023-04-01T11:41:33;100539.97;;;9.67;100.00
60355;BME280;46198;51.464;-0.066;2023-04-01T11:44:25;100556.56;;;9.77;100.00
60355;BME280;46198;51.464;-0.066;2023-04-01T11:47:15;100540.56;;;9.94;100.00
60355;BME280;46198;51.464;-0.066;2023-04-01T11:49:55;100550.97;;;9.97;100.00
60355;BME280;46198;51.464;-0.066;2023-04-01T11:52:47;100553.47;;;9.99;100.00
60355;BME280;46198;51.464;-0.066;2023-04-01T11:55:28;100561.91;;;10.09;100.00
60355;BME280;46198;51.464;-0.066;2023-04-01T11:58:19;100567.59;;;10.01;100.00
60355;BME280;46198;51.464;-0.066;2023-04-01T12:00:59;100572.22;;;10.01;100.00
60355;BME280;46198;51.464;-0.066;2023-04-01T12:03:51;100582.88;;;9.95;100.00
60355;BME280;46198;51.464;-0.066;2023-04-01T12:06:30;100583.06;;;10.01;100.00
60355;BME280;46198;51.464;-0.066;2023-04-01T12:09:09;100590.53;;;10.05;100.00
60355;BME280;46198;51.464;-0.066;2023-04-01T12:11:47;100580.50;;;10.06;100.00
60355;BME280;46198;51.464;-0.066;2023-04-01T12:14:20;100590.31;;;10.07;100.00
60355;BME280;46198;51.464;-0.066;2023-04-01T12:17:00;100588.75;;;10.17;100.00
60355;BME280;46198;51.464;-0.066;2023-04-01T12:19:38;100586.81;;;10.25;100.00
60355;BME280;46198;51.464;-0.066;2023-04-01T12:22:22;100591.16;;;10.32;100.00
60355;BME280;46198;51.464;-0.066;2023-04-01T12:24:58;100601.41;;;10.30;100.00
60355;BME280;46198;51.464;-0.066;2023-04-01T12:27:38;100598.69;;;10.30;100.00
60355;BME280;46198;51.464;-0.066;2023-04-01T12:30:22;100599.47;;;10.37;100.00
60355;BME280;46198;51.464;-0.066;2023-04-01T12:33:01;100614.38;;;10.47;100.00
60355;BME280;46198;51.464;-0.066;2023-04-01T12:35:42;100610.34;;;10.56;100.00
60355;BME280;46198;51.464;-0.066;2023-04-01T12:38:25;100617.09;;;10.47;100.00
60355;BME280;46198;51.464;-0.066;2023-04-01T12:41:09;100629.41;;;10.49;100.00
60355;BME280;46198;51.464;-0.066;2023-04-01T12:44:05;100632.63;;;10.58;100.00
60355;BME280;46198;51.464;-0.066;2023-04-01T12:46:46;100624.50;;;10.58;100.00
60355;BME280;46198;51.464;-0.066;2023-04-01T12:49:48;100633.34;;;10.53;100.00
60355;BME280;46198;51.464;-0.066;2023-04-01T12:52:25;100642.97;;;10.49;100.00
60355;BME280;46198;51.464;-0.066;2023-04-01T12:55:19;100639.34;;;10.55;100.00
60355;BME280;46198;51.464;-0.066;2023-04-01T12:58:13;100646.06;;;10.53;100.00
60355;BME280;46198;51.464;-0.066;2023-04-01T13:01:01;100645.72;;;10.68;100.00
60355;BME280;46198;51.464;-0.066;2023-04-01T13:03:43;100651.88;;;10.56;100.00
60355;BME280;46198;51.464;-0.066;2023-04-01T13:06:32;100662.81;;;10.68;100.00
60355;BME280;46198;51.464;-0.066;2023-04-01T13:09:12;100662.00;;;10.68;100.00
60355;BME280;46198;51.464;-0.066;2023-04-01T13:11:55;100663.94;;;10.60;100.00
60355;BME280;46198;51.464;-0.066;2023-04-01T13:15:00;100669.03;;;10.50;100.00
60355;BME280;46198;51.464;-0.066;2023-04-01T13:17:40;100667.88;;;10.64;100.00
60355;BME280;46198;51.464;-0.066;2023-04-01T13:20:16;100663.66;;;10.69;100.00
60355;BME280;46198;51.464;-0.066;2023-04-01T13:23:01;100666.31;;;10.75;100.00
60355;BME280;46198;51.464;-0.066;2023-04-01T13:25:39;100662.47;;;10.83;100.00
60355;BME280;46198;51.464;-0.066;2023-04-01T13:28:16;100673.72;;;10.86;100.00
60355;BME280;46198;51.464;-0.066;2023-04-01T13:30:55;100674.22;;;10.95;100.00
60355;BME280;46198;51.464;-0.066;2023-04-01T13:33:30;100687.16;;;11.00;100.00
60355;BME280;46198;51.464;-0.066;2023-04-01T13:36:15;100683.97;;;11.03;100.00
60355;BME280;46198;51.464;-0.066;2023-04-01T13:38:57;100686.38;;;11.29;100.00
60355;BME280;46198;51.464;-0.066;2023-04-01T13:41:43;100692.09;;;11.40;100.00
60355;BME280;46198;51.464;-0.066;2023-04-01T13:44:22;100699.06;;;11.66;100.00
60355;BME280;46198;51.464;-0.066;2023-04-01T13:47:06;100697.31;;;11.71;100.00
60355;BME280;46198;51.464;-0.066;2023-04-01T13:53:14;100714.00;;;11.75;100.00
60355;BME280;46198;51.464;-0.066;2023-04-01T13:55:58;100706.06;;;11.92;100.00
60355;BME280;46198;51.464;-0.066;2023-04-01T13:58:43;100718.06;;;11.84;100.00
60355;BME280;46198;51.464;-0.066;2023-04-01T14:01:20;100714.13;;;11.98;100.00
60355;BME280;46198;51.464;-0.066;2023-04-01T14:04:03;100717.44;;;12.01;100.00
60355;BME280;46198;51.464;-0.066;2023-04-01T14:06:49;100725.28;;;11.79;100.00
60355;BME280;46198;51.464;-0.066;2023-04-01T14:12:29;100734.91;;;11.44;100.00
60355;BME280;46198;51.464;-0.066;2023-04-01T14:15:14;100740.19;;;11.58;100.00
60355;BME280;46198;51.464;-0.066;2023-04-01T14:17:51;100747.56;;;11.69;100.00
60355;BME280;46198;51.464;-0.066;2023-04-01T14:20:32;100744.25;;;11.67;100.00
60355;BME280;46198;51.464;-0.066;2023-04-01T14:23:16;100751.75;;;11.53;100.00
60355;BME280;46198;51.464;-0.066;2023-04-01T14:26:12;100751.06;;;11.58;100.00
60355;BME280;46198;51.464;-0.066;2023-04-01T14:28:51;100758.91;;;11.47;100.00
60355;BME280;46198;51.464;-0.066;2023-04-01T14:31:34;100756.75;;;11.19;100.00
60355;BME280;46198;51.464;-0.066;2023-04-01T14:34:18;100764.66;;;11.21;100.00
60355;BME280;46198;51.464;-0.066;2023-04-01T14:37:01;100765.72;;;11.20;100.00
60355;BME280;46198;51.464;-0.066;2023-04-01T14:42:53;100783.69;;;11.21;100.00
60355;BME280;46198;51.464;-0.066;2023-04-01T14:45:42;100779.59;;;11.12;100.00
60355;BME280;46198;51.464;-0.066;2023-04-01T14:48:23;100792.22;;;11.06;100.00
60355;BME280;46198;51.464;-0.066;2023-04-01T14:54:15;100803.97;;;11.00;100.00
60355;BME280;46198;51.464;-0.066;2023-04-01T14:56:50;100809.91;;;10.90;100.00